Terminal Aerodrome Forecast
Issued by NWS Charleston, WV

Current Version | Previous Version | Graphics & Text | Print | Product List | Glossary On
Versions: 1 2 3 4 5 6 7 8 9 10 11 12 13 14 15 16 17 18 19 20 21 22 23
000
FTUS41 KRLX 211815 CCB
TAFBKW
TAF COR
KBKW 211815Z 2118/2218 16009G17KT P6SM SHRA SCT025 BKN035
     FM212000 17008G16KT 4SM SHRA OVC015
     FM220000 16006KT P6SM SHRA OVC025
     FM220600 16006KT 6SM SHRA OVC015
     FM221000 VRB03KT 4SM SHRA BR BKN007
     FM221400 30005KT P6SM BKN015=

USA.gov is the U.S. government's official web portal to all federal, state and local government web resources and services.